Time;durP1;ratioP1;P1;durP2;ratioP2;P2;SDS_P1;SDS_P2;PMS_P1;PMS_P2;Temp;Humidity;BMP_temperature;BMP_pressure;BME280_temperature;BME280_humidity;BME280_pressure;Samples;Min_cycle;Max_cycle;Signal;HPM_P1;HPM_P2
2023/06/01 00:00:07;;;;;;;10.87;5.20;;;13.20;77.80;;;;;;5012290;28;20519;-67
2023/06/01 00:02:36;;;;;;;4.73;4.00;;;13.10;79.20;;;;;;5011778;28;20441;-68
2023/06/01 00:05:05;;;;;;;6.20;4.37;;;13.10;77.10;;;;;;5012092;28;20488;-67
2023/06/01 00:07:34;;;;;;;8.03;4.60;;;13.20;76.70;;;;;;5012117;28;20509;-68
2023/06/01 00:10:02;;;;;;;5.00;3.93;;;13.10;78.10;;;;;;5012094;28;20488;-67
2023/06/01 00:12:30;;;;;;;9.03;5.23;;;13.20;77.40;;;;;;5011876;28;20488;-67
2023/06/01 00:14:58;;;;;;;5.63;4.60;;;13.10;81.50;;;;;;5011901;28;20448;-67
2023/06/01 00:17:28;;;;;;;5.67;4.40;;;13.10;83.60;;;;;;5011936;28;20917;-68
2023/06/01 00:20:00;;;;;;;6.23;4.13;;;13.10;87.90;;;;;;5011642;28;21141;-67
2023/06/01 00:22:34;;;;;;;9.43;4.70;;;12.90;90.00;;;;;;5011626;28;21200;-67
2023/06/01 00:25:02;;;;;;;7.50;4.60;;;12.80;87.70;;;;;;5011681;28;20464;-68
2023/06/01 00:27:30;;;;;;;9.27;4.67;;;12.70;86.20;;;;;;5011996;28;20482;-67
2023/06/01 00:29:58;;;;;;;5.57;4.37;;;12.60;82.80;;;;;;5011526;28;21033;-68
2023/06/01 00:32:26;;;;;;;6.20;4.50;;;12.60;85.80;;;;;;5010952;28;20993;-67
2023/06/01 00:34:54;;;;;;;7.47;4.77;;;12.50;84.40;;;;;;5011646;28;20461;-67
2023/06/01 00:37:23;;;;;;;6.37;4.57;;;12.50;82.30;;;;;;5011495;28;20879;-68
2023/06/01 00:39:51;;;;;;;5.30;4.80;;;12.50;82.40;;;;;;5011406;28;20458;-67
2023/06/01 00:42:19;;;;;;;6.70;4.40;;;12.50;83.50;;;;;;5011481;28;20455;-67
2023/06/01 00:44:47;;;;;;;6.77;4.80;;;12.50;89.80;;;;;;5011195;28;20457;-67
2023/06/01 00:47:15;;;;;;;6.30;4.63;;;12.40;89.80;;;;;;5011430;28;20485;-67
2023/06/01 00:49:44;;;;;;;7.67;4.93;;;12.40;85.30;;;;;;5011435;28;20883;-67
2023/06/01 00:52:14;;;;;;;11.17;7.20;;;12.50;83.70;;;;;;5011193;28;20819;-67
2023/06/01 00:54:43;;;;;;;6.40;5.80;;;12.60;82.90;;;;;;5011106;28;20457;-67
2023/06/01 00:57:11;;;;;;;10.37;4.93;;;12.50;82.90;;;;;;5011136;28;20441;-67
2023/06/01 00:59:39;;;;;;;6.77;4.10;;;12.50;83.00;;;;;;5011127;28;20545;-67
2023/06/01 01:02:08;;;;;;;7.30;4.47;;;12.50;82.90;;;;;;5011236;28;20482;-67
2023/06/01 01:04:36;;;;;;;8.37;4.77;;;12.30;83.60;;;;;;5011002;28;20452;-67
2023/06/01 01:07:22;;;;;;;7.77;5.10;;;12.30;88.90;;;;;;5011232;28;20475;-66
2023/06/01 01:10:00;;;;;;;5.27;4.30;;;12.30;90.40;;;;;;5011266;28;20459;-66
2023/06/01 01:12:34;;;;;;;5.20;4.43;;;12.20;88.20;;;;;;5010996;28;20491;-66
2023/06/01 01:15:09;;;;;;;6.50;5.00;;;12.10;89.70;;;;;;5011431;28;21203;-67
2023/06/01 01:17:42;;;;;;;7.30;4.37;;;12.00;90.90;;;;;;5011498;28;20463;-67
2023/06/01 01:20:15;;;;;;;5.37;4.87;;;12.00;87.80;;;;;;5011038;28;20489;-67
2023/06/01 01:23:08;;;;;;;6.63;5.10;;;11.90;91.10;;;;;;5010973;28;20446;-67
2023/06/01 01:26:10;;;;;;;6.67;5.87;;;11.90;92.20;;;;;;5011052;28;20499;-67
2023/06/01 01:28:43;;;;;;;7.17;5.37;;;11.90;92.20;;;;;;5011209;28;20467;-67
2023/06/01 01:31:13;;;;;;;5.93;4.33;;;11.80;90.30;;;;;;5011347;28;20445;-67
2023/06/01 01:33:42;;;;;;;10.47;4.50;;;11.80;90.30;;;;;;5011294;28;20437;-67
2023/06/01 01:36:11;;;;;;;8.47;4.60;;;11.80;90.30;;;;;;5011688;28;20508;-67
2023/06/01 01:38:40;;;;;;;6.27;4.67;;;11.70;90.20;;;;;;5010965;28;20548;-67
2023/06/01 01:41:08;;;;;;;5.87;4.47;;;11.70;91.90;;;;;;5011035;28;20947;-67
2023/06/01 01:43:36;;;;;;;6.03;4.30;;;11.80;90.70;;;;;;5010386;28;20863;-67
2023/06/01 01:46:12;;;;;;;6.90;4.70;;;11.80;90.40;;;;;;5011214;28;20448;-67
2023/06/01 01:48:48;;;;;;;6.10;4.57;;;11.80;90.50;;;;;;5010812;28;20494;-67
2023/06/01 01:51:23;;;;;;;7.33;4.83;;;11.80;90.30;;;;;;5010763;28;20449;-66
2023/06/01 01:53:53;;;;;;;9.13;4.70;;;11.70;91.20;;;;;;5010694;28;20438;-67
2023/06/01 01:56:22;;;;;;;6.30;4.50;;;11.70;91.00;;;;;;5010609;28;20532;-67
2023/06/01 01:58:50;;;;;;;8.13;4.93;;;11.60;93.10;;;;;;5010174;28;20465;-67
2023/06/01 02:01:20;;;;;;;7.57;4.87;;;11.50;93.40;;;;;;5009621;28;20552;-67
2023/06/01 02:03:58;;;;;;;8.03;4.37;;;11.40;92.10;;;;;;5008838;28;21213;-67
2023/06/01 02:06:27;;;;;;;7.07;5.10;;;11.30;91.90;;;;;;5009829;28;20553;-67
2023/06/01 02:08:55;;;;;;;6.60;4.80;;;11.40;92.50;;;;;;5010205;28;20469;-67
2023/06/01 02:11:23;;;;;;;7.70;5.20;;;11.50;93.80;;;;;;5010129;28;20461;-67
2023/06/01 02:13:51;;;;;;;8.53;4.80;;;11.50;94.10;;;;;;5009966;28;20444;-67
2023/06/01 02:16:21;;;;;;;9.57;5.10;;;11.50;93.90;;;;;;5009772;28;20994;-67
2023/06/01 02:18:50;;;;;;;7.80;4.70;;;11.40;93.90;;;;;;5010361;28;20461;-67
2023/06/01 02:21:19;;;;;;;6.47;4.77;;;11.40;93.50;;;;;;5010085;28;20455;-67
2023/06/01 02:23:47;;;;;;;7.43;5.20;;;11.30;95.00;;;;;;5009695;28;20453;-67
2023/06/01 02:26:16;;;;;;;5.33;4.60;;;11.20;95.00;;;;;;5009865;28;20453;-67
2023/06/01 02:28:44;;;;;;;6.43;4.93;;;11.10;93.50;;;;;;5009721;28;20484;-67
2023/06/01 02:31:13;;;;;;;8.53;5.73;;;11.10;93.50;;;;;;5009754;28;20447;-67
2023/06/01 02:33:42;;;;;;;11.03;5.80;;;11.10;95.80;;;;;;5009317;28;20452;-67
2023/06/01 02:36:10;;;;;;;6.70;5.40;;;11.10;95.60;;;;;;5009910;28;20441;-67
2023/06/01 02:38:38;;;;;;;5.17;4.37;;;11.10;94.50;;;;;;5009659;28;20970;-67
2023/06/01 02:41:06;;;;;;;7.00;5.43;;;11.00;93.90;;;;;;5009789;28;20440;-67
2023/06/01 02:43:35;;;;;;;9.23;5.20;;;11.00;95.30;;;;;;5009501;28;20471;-67
2023/06/01 02:46:04;;;;;;;5.33;4.77;;;10.90;96.60;;;;;;5009830;28;20446;-67
2023/06/01 02:48:32;;;;;;;7.73;5.33;;;10.90;97.00;;;;;;5009574;28;21103;-67
2023/06/01 02:51:01;;;;;;;5.80;5.20;;;11.00;97.00;;;;;;5009631;28;20446;-67
2023/06/01 02:53:31;;;;;;;6.30;5.50;;;11.00;96.10;;;;;;5009384;28;20462;-67
2023/06/01 02:55:59;;;;;;;9.40;5.77;;;10.90;95.40;;;;;;5012555;28;20951;-67
2023/06/01 02:58:29;;;;;;;6.93;5.47;;;10.80;96.00;;;;;;5013206;28;20462;-67
2023/06/01 03:00:58;;;;;;;7.23;5.77;;;10.80;97.70;;;;;;5013473;28;20520;-67
2023/06/01 03:03:26;;;;;;;9.73;5.77;;;10.90;97.30;;;;;;5013176;28;20478;-67
2023/06/01 03:05:55;;;;;;;7.27;5.70;;;10.90;98.00;;;;;;5013353;28;20445;-67
2023/06/01 03:08:25;;;;;;;9.00;5.20;;;10.80;97.90;;;;;;5013057;28;20489;-67
2023/06/01 03:10:53;;;;;;;6.07;4.77;;;10.70;96.30;;;;;;5013434;28;20457;-67
2023/06/01 03:13:21;;;;;;;5.60;5.10;;;10.80;95.60;;;;;;5013115;28;20437;-67
2023/06/01 03:15:50;;;;;;;5.70;4.83;;;10.80;95.40;;;;;;5013184;28;20511;-67
2023/06/01 03:18:18;;;;;;;8.90;5.43;;;10.80;96.10;;;;;;5013045;28;20990;-67
2023/06/01 03:20:47;;;;;;;6.10;5.00;;;10.80;98.40;;;;;;5013169;28;20442;-67
2023/06/01 03:23:15;;;;;;;7.40;5.57;;;10.90;97.70;;;;;;5012860;28;20458;-67
2023/06/01 03:25:45;;;;;;;9.17;5.07;;;10.80;98.40;;;;;;5012970;28;20497;-67
2023/06/01 03:28:13;;;;;;;7.17;5.03;;;10.70;97.10;;;;;;5012803;28;20482;-67
2023/06/01 03:30:42;;;;;;;8.30;6.33;;;10.60;96.50;;;;;;5013221;28;20868;-67
2023/06/01 03:33:10;;;;;;;7.43;4.87;;;10.50;98.10;;;;;;5012732;28;20474;-67
2023/06/01 03:35:38;;;;;;;6.17;5.20;;;10.50;98.90;;;;;;5012855;28;20455;-67
2023/06/01 03:38:06;;;;;;;6.60;6.00;;;10.60;98.40;;;;;;5012647;28;20528;-67
2023/06/01 03:40:34;;;;;;;6.87;5.40;;;10.80;98.20;;;;;;5012550;28;20446;-67
2023/06/01 03:43:04;;;;;;;8.13;5.60;;;10.70;98.20;;;;;;5012460;28;20456;-68
2023/06/01 03:45:32;;;;;;;6.83;5.37;;;10.60;98.20;;;;;;5012639;28;20477;-67
2023/06/01 03:48:00;;;;;;;7.73;5.40;;;10.60;97.90;;;;;;5012267;28;20852;-67
2023/06/01 03:50:28;;;;;;;7.17;6.23;;;10.50;97.30;;;;;;5012776;28;20534;-67
2023/06/01 03:52:56;;;;;;;10.40;5.50;;;10.50;97.30;;;;;;5012344;28;20855;-67
2023/06/01 03:55:24;;;;;;;6.60;5.40;;;10.60;98.60;;;;;;5012517;28;20503;-67
2023/06/01 03:57:52;;;;;;;8.83;6.10;;;10.70;99.30;;;;;;5012352;28;20444;-67
2023/06/01 04:00:22;;;;;;;7.60;5.77;;;10.80;98.70;;;;;;5012411;28;20441;-67
2023/06/01 04:02:53;;;;;;;7.97;5.50;;;10.80;99.10;;;;;;5011928;28;20994;-67
2023/06/01 04:05:22;;;;;;;6.83;6.13;;;10.70;97.30;;;;;;5012283;28;20443;-67
2023/06/01 04:07:53;;;;;;;6.50;4.80;;;10.80;98.50;;;;;;5011285;28;20570;-67
2023/06/01 04:10:21;;;;;;;7.70;4.90;;;11.00;98.60;;;;;;5012059;28;20449;-67
2023/06/01 04:12:50;;;;;;;7.47;5.70;;;11.10;98.10;;;;;;5011731;28;20495;-67
2023/06/01 04:15:21;;;;;;;8.10;5.70;;;11.20;97.80;;;;;;5011685;28;20509;-67
2023/06/01 04:17:49;;;;;;;5.50;4.93;;;11.30;97.40;;;;;;5011899;28;20435;-67
2023/06/01 04:20:18;;;;;;;7.33;6.13;;;11.20;98.10;;;;;;5011694;28;20463;-67
2023/06/01 04:22:46;;;;;;;7.90;5.40;;;11.30;97.70;;;;;;5011428;28;20448;-67
2023/06/01 04:25:17;;;;;;;13.00;6.57;;;11.30;96.00;;;;;;5011727;28;20452;-67
2023/06/01 04:27:48;;;;;;;6.80;5.23;;;11.40;97.20;;;;;;5011625;28;20534;-67
2023/06/01 04:30:17;;;;;;;8.00;5.43;;;11.50;97.80;;;;;;5011764;28;20463;-67
2023/06/01 04:32:47;;;;;;;6.53;5.33;;;11.70;96.40;;;;;;5011494;28;20453;-67
2023/06/01 04:35:17;;;;;;;6.93;5.40;;;11.70;96.70;;;;;;5011821;28;20440;-67
2023/06/01 04:37:45;;;;;;;10.30;5.33;;;11.80;97.30;;;;;;5011493;28;20452;-67
2023/06/01 04:40:14;;;;;;;7.70;5.40;;;12.00;96.70;;;;;;5011453;28;20553;-67
2023/06/01 04:42:48;;;;;;;5.57;5.07;;;12.00;96.80;;;;;;5011260;28;20454;-67
2023/06/01 04:45:18;;;;;;;7.17;5.50;;;12.00;97.30;;;;;;5011591;28;20543;-67
2023/06/01 04:47:48;;;;;;;5.50;5.00;;;12.00;97.40;;;;;;5011320;28;20826;-67
2023/06/01 04:50:16;;;;;;;7.00;5.13;;;12.10;96.70;;;;;;5011209;28;20489;-67
2023/06/01 04:52:45;;;;;;;8.40;5.73;;;12.20;96.20;;;;;;5010843;28;20453;-67
2023/06/01 04:55:13;;;;;;;6.43;5.27;;;12.30;95.90;;;;;;5011081;28;20446;-67
2023/06/01 04:57:43;;;;;;;6.67;5.47;;;12.30;95.90;;;;;;5011348;28;20460;-67
2023/06/01 05:00:13;;;;;;;11.40;6.20;;;12.30;95.90;;;;;;5011138;28;20454;-67
2023/06/01 05:02:43;;;;;;;9.67;7.10;;;12.40;97.20;;;;;;5010793;28;20480;-66
2023/06/01 05:05:13;;;;;;;9.00;5.63;;;12.30;95.70;;;;;;5010993;28;20461;-66
2023/06/01 05:07:42;;;;;;;11.13;6.53;;;12.40;96.00;;;;;;5011286;28;20453;-67
2023/06/01 05:10:12;;;;;;;7.63;6.20;;;12.60;96.50;;;;;;5010750;28;20649;-67
2023/06/01 05:12:40;;;;;;;9.70;7.00;;;12.70;97.00;;;;;;5010765;28;20448;-67
2023/06/01 05:15:10;;;;;;;7.03;6.30;;;12.90;96.50;;;;;;5010840;28;20481;-67
2023/06/01 05:17:39;;;;;;;7.70;5.77;;;12.90;96.20;;;;;;5010789;28;20434;-67
2023/06/01 05:20:08;;;;;;;7.90;5.93;;;12.90;96.60;;;;;;5010613;28;20499;-67
2023/06/01 05:22:38;;;;;;;7.17;6.20;;;13.00;96.00;;;;;;5010464;28;20462;-67
2023/06/01 05:25:07;;;;;;;7.80;6.33;;;13.10;96.60;;;;;;5010821;28;20445;-67
2023/06/01 05:27:36;;;;;;;7.57;6.33;;;13.20;97.50;;;;;;5010688;28;20453;-67
2023/06/01 05:30:05;;;;;;;7.87;5.87;;;13.30;96.40;;;;;;5010436;28;20481;-67
2023/06/01 05:32:33;;;;;;;6.80;6.10;;;13.40;96.50;;;;;;5010504;28;20450;-67
2023/06/01 05:35:01;;;;;;;8.90;6.47;;;13.50;97.10;;;;;;5010879;28;20514;-67
2023/06/01 05:37:29;;;;;;;8.97;6.30;;;13.60;95.50;;;;;;5010527;28;20454;-67
2023/06/01 05:39:59;;;;;;;7.40;6.10;;;13.70;95.50;;;;;;5010638;28;20933;-67
2023/06/01 05:42:27;;;;;;;7.67;5.90;;;13.80;96.40;;;;;;5010467;28;20493;-67
2023/06/01 05:44:55;;;;;;;7.80;5.90;;;13.90;96.00;;;;;;5010583;28;20470;-67
2023/06/01 05:47:22;;;;;;;8.63;6.60;;;14.00;94.50;;;;;;5010513;28;20535;-66
2023/06/01 05:49:50;;;;;;;10.30;5.87;;;14.10;94.80;;;;;;5010374;28;20995;-67
2023/06/01 05:52:18;;;;;;;7.93;5.73;;;14.20;94.00;;;;;;5010568;28;20445;-67
2023/06/01 05:54:48;;;;;;;6.20;5.57;;;14.30;93.70;;;;;;5010289;28;20446;-67
2023/06/01 05:57:18;;;;;;;11.27;6.17;;;14.40;93.10;;;;;;5010441;28;20446;-67
2023/06/01 05:59:46;;;;;;;10.80;6.20;;;14.50;93.90;;;;;;5011298;28;20459;-67
2023/06/01 06:02:14;;;;;;;8.23;5.13;;;14.70;93.20;;;;;;5011226;28;20473;-67
2023/06/01 06:04:43;;;;;;;7.37;4.87;;;14.70;92.50;;;;;;5010119;28;20480;-67
2023/06/01 06:07:12;;;;;;;9.37;5.37;;;14.80;91.00;;;;;;5010232;28;20446;-67
2023/06/01 06:09:40;;;;;;;9.57;5.83;;;15.00;90.20;;;;;;5009872;28;20514;-68
2023/06/01 06:12:09;;;;;;;9.50;6.00;;;15.10;87.80;;;;;;5009913;28;21223;-67
2023/06/01 06:14:38;;;;;;;14.57;7.50;;;15.40;86.00;;;;;;5009697;28;20441;-67
2023/06/01 06:17:09;;;;;;;10.00;6.30;;;15.50;86.10;;;;;;5010015;28;20443;-67
2023/06/01 06:19:37;;;;;;;12.97;5.60;;;15.60;83.30;;;;;;5009748;28;21074;-67
2023/06/01 06:22:05;;;;;;;8.40;5.77;;;15.70;82.00;;;;;;5009772;28;20838;-67
2023/06/01 06:24:33;;;;;;;12.20;6.33;;;15.80;82.00;;;;;;5009395;28;20507;-67
2023/06/01 06:27:01;;;;;;;12.30;5.47;;;15.90;81.90;;;;;;5010001;28;20942;-67
2023/06/01 06:29:30;;;;;;;11.60;6.00;;;16.00;82.00;;;;;;5010552;28;20489;-68
2023/06/01 06:31:59;;;;;;;10.73;5.73;;;16.00;83.20;;;;;;5013821;28;20445;-68
2023/06/01 06:34:33;;;;;;;6.47;5.83;;;16.10;84.30;;;;;;5013682;28;20446;-68
2023/06/01 06:37:02;;;;;;;7.40;5.30;;;16.20;82.70;;;;;;5013593;28;21119;-68
2023/06/01 06:39:30;;;;;;;10.83;5.27;;;16.30;80.40;;;;;;5013672;28;20512;-67
2023/06/01 06:41:58;;;;;;;9.43;6.30;;;16.40;81.00;;;;;;5013690;28;20924;-68
2023/06/01 06:44:26;;;;;;;10.70;6.77;;;16.60;80.00;;;;;;5013464;28;20438;-67
2023/06/01 06:46:54;;;;;;;8.63;5.30;;;16.70;78.60;;;;;;5013760;28;20442;-68
2023/06/01 06:49:23;;;;;;;7.43;5.63;;;16.70;79.60;;;;;;5013288;28;20485;-68
2023/06/01 06:51:51;;;;;;;9.70;5.30;;;16.80;79.20;;;;;;5013472;28;21042;-68
2023/06/01 06:54:19;;;;;;;11.07;5.33;;;17.00;78.50;;;;;;5013346;28;20520;-68
2023/06/01 06:56:47;;;;;;;8.27;5.33;;;17.20;74.10;;;;;;5013312;28;20897;-68
2023/06/01 06:59:15;;;;;;;6.90;4.77;;;17.30;73.80;;;;;;5013434;28;20466;-68
2023/06/01 07:01:43;;;;;;;5.80;4.43;;;17.50;74.00;;;;;;5013186;28;20481;-68
2023/06/01 07:04:11;;;;;;;7.40;4.27;;;17.60;72.70;;;;;;5013120;28;20477;-68
2023/06/01 07:06:41;;;;;;;7.10;3.70;;;17.70;70.70;;;;;;5013299;28;20490;-68
2023/06/01 07:09:09;;;;;;;9.93;5.00;;;17.90;72.40;;;;;;5013147;28;20462;-67
2023/06/01 07:11:37;;;;;;;4.70;4.23;;;18.00;69.00;;;;;;5013113;28;20441;-67
2023/06/01 07:14:05;;;;;;;3.93;3.57;;;18.10;66.90;;;;;;5012755;28;20445;-66
2023/06/01 07:16:33;;;;;;;5.60;4.60;;;18.30;66.10;;;;;;5012957;28;20880;-66
2023/06/01 07:19:01;;;;;;;6.57;4.10;;;18.30;67.50;;;;;;5013058;28;20554;-67
2023/06/01 07:21:29;;;;;;;9.93;4.10;;;18.50;66.70;;;;;;5012888;28;20987;-67
2023/06/01 07:23:59;;;;;;;10.47;4.30;;;18.60;65.30;;;;;;5012773;28;20457;-67
2023/06/01 07:26:28;;;;;;;6.87;4.13;;;18.80;58.90;;;;;;5012938;28;20477;-67
2023/06/01 07:28:57;;;;;;;6.20;4.70;;;18.90;60.80;;;;;;5012753;28;20554;-68
2023/06/01 07:31:27;;;;;;;8.47;4.83;;;19.00;60.00;;;;;;5012773;28;20565;-68
2023/06/01 07:33:56;;;;;;;8.27;4.20;;;19.10;60.30;;;;;;5012649;28;20525;-67
2023/06/01 07:36:24;;;;;;;10.73;4.83;;;19.20;58.70;;;;;;5012672;28;20453;-68
2023/06/01 07:38:52;;;;;;;9.50;4.90;;;19.30;58.00;;;;;;5012610;28;20469;-68
2023/06/01 07:41:21;;;;;;;10.13;4.60;;;19.40;57.20;;;;;;5011329;28;20434;-68
2023/06/01 07:43:49;;;;;;;6.13;4.57;;;19.50;58.30;;;;;;5012627;28;20552;-68
2023/06/01 07:46:17;;;;;;;7.87;4.77;;;19.60;57.10;;;;;;5012950;28;20496;-68
2023/06/01 07:48:45;;;;;;;5.00;4.07;;;19.70;57.30;;;;;;5012368;28;20466;-68
2023/06/01 07:51:14;;;;;;;5.43;4.27;;;19.80;55.30;;;;;;5012383;28;20589;-68
2023/06/01 07:53:42;;;;;;;6.83;4.20;;;19.90;56.80;;;;;;5012023;28;20441;-68
2023/06/01 07:56:10;;;;;;;5.53;3.77;;;20.00;57.60;;;;;;5012362;28;20478;-68
2023/06/01 07:58:39;;;;;;;7.37;5.17;;;20.10;57.50;;;;;;5012628;28;20468;-68
2023/06/01 08:01:07;;;;;;;8.90;4.57;;;20.20;56.60;;;;;;5012542;28;20529;-67
2023/06/01 08:03:35;;;;;;;7.73;4.40;;;20.30;55.50;;;;;;5012340;28;20446;-68
2023/06/01 08:06:04;;;;;;;7.90;4.50;;;20.40;54.90;;;;;;5012574;28;20446;-68
2023/06/01 08:08:33;;;;;;;5.57;4.23;;;20.40;56.00;;;;;;5012135;28;20505;-68
2023/06/01 08:11:01;;;;;;;4.87;4.37;;;20.60;55.40;;;;;;5012070;28;21011;-68
2023/06/01 08:13:29;;;;;;;5.03;4.50;;;20.70;54.20;;;;;;5012403;28;20445;-68
2023/06/01 08:15:59;;;;;;;8.43;4.00;;;20.80;53.80;;;;;;5012399;28;20477;-68
2023/06/01 08:18:28;;;;;;;4.37;3.93;;;20.90;55.60;;;;;;5012142;28;21006;-68
2023/06/01 08:20:56;;;;;;;4.80;4.30;;;21.10;56.90;;;;;;5011982;28;20442;-66
2023/06/01 08:23:24;;;;;;;8.83;4.80;;;21.30;55.90;;;;;;5011773;28;20442;-67
2023/06/01 08:25:52;;;;;;;8.03;5.00;;;21.50;54.10;;;;;;5011736;28;20449;-66
2023/06/01 08:28:20;;;;;;;11.07;5.10;;;21.60;54.20;;;;;;5011943;28;20504;-67
2023/06/01 08:30:48;;;;;;;5.27;4.77;;;21.70;54.00;;;;;;5011885;28;20478;-66
2023/06/01 08:33:18;;;;;;;6.17;4.90;;;21.70;54.50;;;;;;5011396;28;20569;-68
2023/06/01 08:35:46;;;;;;;5.40;3.87;;;21.80;53.50;;;;;;5011635;28;20944;-67
2023/06/01 08:38:13;;;;;;;9.23;5.30;;;21.90;55.00;;;;;;5011334;28;20473;-67
2023/06/01 08:40:41;;;;;;;8.70;5.50;;;22.00;50.60;;;;;;5011698;28;20438;-67
2023/06/01 08:43:14;;;;;;;5.93;5.17;;;22.00;51.50;;;;;;5011238;28;20853;-67
2023/06/01 08:45:44;;;;;;;8.17;5.13;;;22.10;51.70;;;;;;5011571;28;20438;-67
2023/06/01 08:48:16;;;;;;;7.60;4.77;;;22.20;52.00;;;;;;5011040;28;20891;-67
2023/06/01 08:50:48;;;;;;;6.80;5.47;;;22.30;51.40;;;;;;5011557;28;20474;-67
2023/06/01 08:53:21;;;;;;;8.73;4.60;;;22.40;51.10;;;;;;5010691;28;20453;-67
2023/06/01 08:55:52;;;;;;;6.73;5.20;;;22.60;52.20;;;;;;5011395;28;20825;-67
2023/06/01 08:58:20;;;;;;;5.87;5.27;;;22.70;53.40;;;;;;5011126;28;20473;-67
2023/06/01 09:00:49;;;;;;;9.03;5.40;;;22.80;51.60;;;;;;5011033;28;21138;-67
2023/06/01 09:03:17;;;;;;;7.30;5.43;;;22.80;51.30;;;;;;5010909;28;20469;-67
2023/06/01 09:05:46;;;;;;;9.60;5.40;;;22.90;51.10;;;;;;5011275;28;20446;-66
2023/06/01 09:08:15;;;;;;;8.00;5.30;;;23.20;50.70;;;;;;5011145;28;20885;-66
2023/06/01 09:10:44;;;;;;;7.47;5.60;;;23.30;50.70;;;;;;5010910;28;20474;-66
2023/06/01 09:13:11;;;;;;;6.07;5.20;;;23.70;50.70;;;;;;5010590;28;20999;-67
2023/06/01 09:15:52;;;;;;;6.70;5.10;;;23.90;51.70;;;;;;5010852;28;20441;-68
2023/06/01 09:18:20;;;;;;;5.40;4.63;;;24.10;48.80;;;;;;5010842;28;20461;-67
2023/06/01 09:20:50;;;;;;;6.10;5.10;;;24.10;49.10;;;;;;5010845;28;20450;-68
2023/06/01 09:23:24;;;;;;;6.87;5.87;;;24.20;47.90;;;;;;5010565;28;20545;-66
2023/06/01 09:26:06;;;;;;;8.27;5.30;;;24.20;47.40;;;;;;5010598;28;20446;-67
2023/06/01 09:29:05;;;;;;;6.83;5.63;;;24.40;48.10;;;;;;5010799;28;20500;-67
2023/06/01 09:31:39;;;;;;;10.43;5.70;;;24.40;48.30;;;;;;4968829;28;21005;-67
2023/06/01 09:34:12;;;;;;;6.10;5.13;;;24.50;47.60;;;;;;5003462;28;20520;-66
2023/06/01 09:36:41;;;;;;;7.17;5.73;;;24.60;47.10;;;;;;5010506;28;20496;-66
2023/06/01 09:39:11;;;;;;;7.70;5.50;;;24.60;49.40;;;;;;5010659;28;20571;-66
2023/06/01 09:41:51;;;;;;;6.23;5.63;;;24.50;46.20;;;;;;5010400;28;20975;-67
2023/06/01 09:44:30;;;;;;;7.27;5.10;;;24.50;46.30;;;;;;5010249;28;20441;-67
2023/06/01 09:47:00;;;;;;;5.80;5.20;;;24.60;49.40;;;;;;5010631;28;20442;-67
2023/06/01 09:49:30;;;;;;;8.10;5.47;;;24.80;47.40;;;;;;5010548;28;20549;-68
2023/06/01 09:52:14;;;;;;;6.73;6.00;;;25.20;46.20;;;;;;5010380;28;20572;-67
2023/06/01 09:54:44;;;;;;;6.33;5.63;;;25.50;46.30;;;;;;5009831;28;20533;-68
2023/06/01 09:57:13;;;;;;;7.03;5.93;;;25.70;44.60;;;;;;5010322;28;20446;-68
2023/06/01 09:59:43;;;;;;;6.63;5.97;;;25.90;42.90;;;;;;5010298;28;20565;-68
2023/06/01 10:02:14;;;;;;;6.10;5.50;;;26.40;42.70;;;;;;5010506;28;20513;-68
2023/06/01 10:04:46;;;;;;;6.73;5.73;;;27.20;42.60;;;;;;5009281;28;20446;-67
2023/06/01 10:07:16;;;;;;;7.40;5.87;;;27.90;41.00;;;;;;5009940;28;20448;-68
2023/06/01 10:09:49;;;;;;;8.00;5.67;;;28.20;40.10;;;;;;5010497;28;20549;-67
2023/06/01 10:12:17;;;;;;;7.90;6.50;;;28.00;39.50;;;;;;5010203;28;20572;-68
2023/06/01 10:14:45;;;;;;;8.13;6.20;;;27.90;40.00;;;;;;5009913;28;20442;-68
2023/06/01 10:17:16;;;;;;;7.13;6.43;;;27.80;40.30;;;;;;5010297;28;20481;-68
2023/06/01 10:19:45;;;;;;;6.20;5.70;;;27.60;39.20;;;;;;5010045;28;20465;-67
2023/06/01 10:22:15;;;;;;;8.10;6.33;;;27.70;41.80;;;;;;5010242;28;20484;-68
2023/06/01 10:24:44;;;;;;;8.03;5.90;;;28.10;38.50;;;;;;5010296;28;20528;-68
2023/06/01 10:27:19;;;;;;;6.23;5.40;;;28.70;37.80;;;;;;5010437;28;20487;-69
2023/06/01 10:29:48;;;;;;;10.10;5.60;;;28.80;39.80;;;;;;5010383;28;20838;-68
2023/06/01 10:32:44;;;;;;;6.37;5.77;;;29.00;39.40;;;;;;5010013;28;20563;-69
2023/06/01 10:36:04;;;;;;;10.33;6.03;;;29.10;37.10;;;;;;5010268;28;20450;-68
2023/06/01 10:38:34;;;;;;;7.77;6.40;;;29.00;37.00;;;;;;5010022;28;20484;-68
2023/06/01 10:41:31;;;;;;;6.60;5.80;;;29.20;37.60;;;;;;5010156;28;20437;-69
2023/06/01 10:43:59;;;;;;;7.60;5.67;;;30.00;36.00;;;;;;5009634;28;20852;-68
2023/06/01 10:46:38;;;;;;;6.63;5.87;;;30.30;34.90;;;;;;5010049;28;20533;-68
2023/06/01 10:49:08;;;;;;;8.30;6.27;;;30.80;35.20;;;;;;5010246;28;20453;-69
2023/06/01 10:51:37;;;;;;;8.33;5.63;;;30.20;35.20;;;;;;5010022;28;20588;-68
2023/06/01 10:54:30;;;;;;;7.20;5.70;;;29.60;36.00;;;;;;5009473;28;20974;-69
2023/06/01 10:57:21;;;;;;;8.10;6.40;;;29.20;37.50;;;;;;5009808;28;20492;-67
2023/06/01 11:00:12;;;;;;;6.10;5.60;;;28.50;36.30;;;;;;5009603;28;21066;-68
2023/06/01 11:02:49;;;;;;;7.37;6.23;;;28.40;37.30;;;;;;5009407;28;20821;-68
2023/06/01 11:05:37;;;;;;;5.93;5.33;;;28.80;37.10;;;;;;5009675;28;20504;-68
2023/06/01 11:08:06;;;;;;;8.47;5.83;;;29.20;35.60;;;;;;5009703;28;20452;-67
2023/06/01 11:10:59;;;;;;;7.07;6.07;;;29.30;35.70;;;;;;5009795;28;20437;-67
2023/06/01 11:13:31;;;;;;;6.73;6.07;;;28.40;37.40;;;;;;5009138;28;20505;-67
2023/06/01 11:16:31;;;;;;;6.10;5.50;;;28.70;36.90;;;;;;5011034;28;20434;-68
2023/06/01 11:19:02;;;;;;;8.87;6.23;;;29.30;34.60;;;;;;5013139;28;20547;-68
2023/06/01 11:21:34;;;;;;;6.97;6.07;;;29.60;36.10;;;;;;5013085;28;20434;-68
2023/06/01 11:24:06;;;;;;;6.03;5.53;;;29.50;38.20;;;;;;5012700;28;20446;-69
2023/06/01 11:26:38;;;;;;;6.77;5.40;;;29.50;34.80;;;;;;5012880;28;20442;-69
2023/06/01 11:29:12;;;;;;;5.83;5.33;;;29.90;34.70;;;;;;5012999;28;20544;-68
2023/06/01 11:31:45;;;;;;;6.17;5.43;;;29.90;35.40;;;;;;5012944;28;20441;-68
2023/06/01 11:34:15;;;;;;;5.77;5.37;;;30.80;35.80;;;;;;5012601;28;20517;-68
2023/06/01 11:36:47;;;;;;;5.77;5.17;;;31.50;35.40;;;;;;5012714;28;20524;-69
2023/06/01 11:39:24;;;;;;;6.10;5.50;;;32.00;32.50;;;;;;5012674;28;20466;-68
2023/06/01 11:42:05;;;;;;;7.67;5.93;;;31.60;33.60;;;;;;5012837;28;20434;-68
2023/06/01 11:44:35;;;;;;;6.50;5.80;;;31.40;33.40;;;;;;5012310;28;20445;-68
2023/06/01 11:47:04;;;;;;;7.17;5.27;;;31.00;33.60;;;;;;5012566;28;20445;-69
2023/06/01 11:49:32;;;;;;;7.63;5.83;;;30.90;32.90;;;;;;5012293;28;20470;-68
2023/06/01 11:52:02;;;;;;;6.60;6.00;;;30.70;33.40;;;;;;5012605;28;20543;-68
2023/06/01 11:54:30;;;;;;;6.27;5.67;;;30.90;32.80;;;;;;5012118;28;20481;-66
2023/06/01 11:56:59;;;;;;;6.63;5.97;;;31.30;32.40;;;;;;5012328;28;21043;-67
2023/06/01 11:59:28;;;;;;;6.20;5.70;;;31.20;33.60;;;;;;5012247;28;20544;-67
2023/06/01 12:01:56;;;;;;;6.07;5.47;;;31.10;35.00;;;;;;5012103;28;20454;-67
2023/06/01 12:04:26;;;;;;;6.40;5.80;;;31.30;32.20;;;;;;5012284;28;20442;-67
2023/06/01 12:07:05;;;;;;;6.33;5.73;;;30.90;31.00;;;;;;5012327;28;20492;-68
2023/06/01 12:09:35;;;;;;;5.80;5.20;;;31.00;31.00;;;;;;5012170;28;20529;-67
2023/06/01 12:12:07;;;;;;;5.70;5.20;;;31.50;34.20;;;;;;5012047;28;20442;-67
2023/06/01 12:14:35;;;;;;;6.53;5.47;;;32.40;31.80;;;;;;5011997;28;20418;-68
2023/06/01 12:17:05;;;;;;;7.47;5.40;;;32.60;30.80;;;;;;5012112;28;20446;-68
2023/06/01 12:19:35;;;;;;;7.37;5.37;;;31.20;31.50;;;;;;5012397;28;20469;-67
2023/06/01 12:22:03;;;;;;;7.27;5.20;;;30.40;33.20;;;;;;5012101;28;20902;-68
2023/06/01 12:24:33;;;;;;;9.23;6.40;;;30.90;32.70;;;;;;5011741;28;20465;-67
2023/06/01 12:27:02;;;;;;;5.93;5.33;;;31.50;33.80;;;;;;5011289;28;20441;-68
2023/06/01 12:29:41;;;;;;;6.20;5.27;;;32.50;34.00;;;;;;5011852;28;20523;-67
2023/06/01 12:32:10;;;;;;;7.70;5.57;;;33.70;32.90;;;;;;5011793;28;20853;-67
2023/06/01 12:34:39;;;;;;;5.27;4.60;;;34.10;31.60;;;;;;5011442;28;20452;-67
2023/06/01 12:37:15;;;;;;;5.80;5.20;;;35.00;29.40;;;;;;5011591;28;20990;-67
2023/06/01 12:39:43;;;;;;;5.20;4.70;;;35.00;28.60;;;;;;5011636;28;20472;-67
2023/06/01 12:42:11;;;;;;;5.93;5.33;;;35.00;28.00;;;;;;5011986;28;20532;-68
2023/06/01 12:44:41;;;;;;;6.23;5.63;;;34.20;28.90;;;;;;5011828;28;20525;-67
2023/06/01 12:47:10;;;;;;;7.03;5.83;;;33.70;30.00;;;;;;5012783;28;20442;-66
2023/06/01 12:49:39;;;;;;;5.57;5.07;;;33.20;29.90;;;;;;5011766;28;20893;-67
2023/06/01 12:52:08;;;;;;;6.77;5.50;;;33.30;30.10;;;;;;5011754;28;20450;-68
2023/06/01 12:54:37;;;;;;;5.40;4.53;;;32.40;30.30;;;;;;5011258;28;20481;-67
2023/06/01 12:57:13;;;;;;;5.70;4.93;;;32.30;34.20;;;;;;5011337;28;21181;-68
2023/06/01 12:59:43;;;;;;;5.97;5.37;;;32.30;30.20;;;;;;5011670;28;20458;-68
2023/06/01 13:02:11;;;;;;;6.07;5.53;;;32.40;30.20;;;;;;5011109;28;20569;-68